Time;durP1;ratioP1;P1;durP2;ratioP2;P2;SDS_P1;SDS_P2;PMS_P1;PMS_P2;Temp;Humidity;BMP_temperature;BMP_pressure;BME280_temperature;BME280_humidity;BME280_pressure;Samples;Min_cycle;Max_cycle;Signal;HPM_P1;HPM_P2
2023/06/07 00:01:59;;;;;;;4.45;2.20;;;;;;;17.19;61.16;99567.03;5082990;28;20024;-87
2023/06/07 00:04:24;;;;;;;6.97;2.25;;;;;;;17.23;59.72;99555.19;5080914;28;20024;-87
2023/06/07 00:06:56;;;;;;;5.15;1.90;;;;;;;17.33;59.17;99562.31;5081300;28;20026;-86
2023/06/07 00:09:21;;;;;;;2.67;1.70;;;;;;;17.37;58.81;99555.97;5099779;28;20102;-87
2023/06/07 00:11:47;;;;;;;5.32;2.00;;;;;;;17.33;58.52;99551.44;5099373;28;20038;-86
2023/06/07 00:14:12;;;;;;;5.22;2.20;;;;;;;17.35;58.49;99541.84;5081898;28;20050;-86
2023/06/07 00:16:38;;;;;;;4.28;2.05;;;;;;;17.36;58.30;99548.09;5081318;28;20027;-86
2023/06/07 00:19:03;;;;;;;3.33;1.77;;;;;;;17.28;58.23;99541.47;5082231;28;20031;-86
2023/06/07 00:21:30;;;;;;;4.35;1.75;;;;;;;17.17;59.50;99535.47;5082125;28;20035;-86
2023/06/07 00:23:55;;;;;;;3.85;2.10;;;;;;;17.09;60.58;99536.19;5082238;28;20055;-86
2023/06/07 00:26:20;;;;;;;4.72;2.22;;;;;;;17.11;60.69;99538.63;5081120;28;20035;-87
2023/06/07 00:28:46;;;;;;;5.10;1.83;;;;;;;17.17;60.07;99538.19;5081734;28;20027;-87
2023/06/07 00:31:11;;;;;;;4.60;2.20;;;;;;;17.22;59.14;99534.53;5081981;28;20073;-87
2023/06/07 00:33:37;;;;;;;4.38;2.10;;;;;;;17.33;59.10;99538.63;5081969;28;20022;-87
2023/06/07 00:36:03;;;;;;;3.83;2.08;;;;;;;17.24;58.95;99526.84;5074575;28;20027;-86
2023/06/07 00:38:28;;;;;;;3.63;1.85;;;;;;;17.25;59.38;99527.69;5076874;28;20481;-86
2023/06/07 00:40:53;;;;;;;6.63;2.30;;;;;;;17.04;61.45;99540.97;5089707;28;20036;-87
2023/06/07 00:43:19;;;;;;;4.18;2.22;;;;;;;16.77;62.52;99524.38;5082381;28;20046;-87
2023/06/07 00:45:44;;;;;;;8.60;2.25;;;;;;;16.63;63.03;99526.31;5077973;28;20032;-86
2023/06/07 00:48:10;;;;;;;4.53;2.33;;;;;;;16.78;62.36;99533.34;5074205;28;20039;-86
2023/06/07 00:50:35;;;;;;;4.60;2.50;;;;;;;16.62;63.46;99522.00;5081655;28;20470;-87
2023/06/07 00:53:02;;;;;;;4.10;2.03;;;;;;;16.64;63.45;99522.47;5098213;28;20019;-87
2023/06/07 00:55:27;;;;;;;3.67;2.20;;;;;;;16.57;63.29;99525.63;5081570;28;20031;-86
2023/06/07 00:57:54;;;;;;;7.38;2.33;;;;;;;16.60;63.09;99520.69;5080624;28;20031;-86
2023/06/07 01:00:20;;;;;;;3.72;2.33;;;;;;;16.65;63.01;99526.03;5115558;28;20122;-87
2023/06/07 01:02:46;;;;;;;3.70;1.90;;;;;;;16.77;62.05;99520.88;5114655;28;20144;-86
2023/06/07 01:05:12;;;;;;;3.50;2.15;;;;;;;16.81;61.36;99516.44;5097844;28;20051;-87
2023/06/07 01:07:37;;;;;;;6.05;2.50;;;;;;;16.88;60.65;99519.53;5094593;28;20042;-87
2023/06/07 01:10:05;;;;;;;4.57;2.63;;;;;;;16.92;60.30;99527.91;5061664;28;20027;-86
2023/06/07 01:12:30;;;;;;;4.00;2.10;;;;;;;16.90;60.14;99513.81;5077508;28;20038;-86
2023/06/07 01:14:56;;;;;;;7.85;2.33;;;;;;;16.82;61.20;99515.31;5078000;28;20036;-86
2023/06/07 01:17:24;;;;;;;5.07;2.20;;;;;;;16.75;61.01;99510.28;5060194;28;20016;-87
2023/06/07 01:19:53;;;;;;;4.85;2.10;;;;;;;16.90;60.40;99516.53;5062219;28;20043;-87
2023/06/07 01:22:26;;;;;;;3.60;2.30;;;;;;;16.92;60.03;99511.56;5061405;28;20036;-86
2023/06/07 01:24:53;;;;;;;3.63;2.15;;;;;;;16.94;60.27;99509.34;5061680;28;20036;-87
2023/06/07 01:27:21;;;;;;;2.88;2.10;;;;;;;16.97;58.53;99497.84;5061098;28;20474;-86
2023/06/07 01:29:48;;;;;;;5.60;2.55;;;;;;;17.04;60.30;99514.56;5061019;28;20032;-87
2023/06/07 01:32:13;;;;;;;4.53;2.20;;;;;;;16.87;61.13;99498.09;5060582;28;20463;-86
2023/06/07 01:34:39;;;;;;;5.25;2.75;;;;;;;16.83;62.08;99497.91;5060670;28;20093;-87
2023/06/07 01:37:04;;;;;;;3.00;2.20;;;;;;;16.74;62.77;99508.66;5061062;28;20028;-87
2023/06/07 01:39:30;;;;;;;3.95;2.17;;;;;;;16.68;63.27;99514.53;5060241;28;20513;-86
2023/06/07 01:41:55;;;;;;;4.63;2.67;;;;;;;16.59;62.88;99498.13;5061362;28;20028;-86
2023/06/07 01:44:21;;;;;;;7.03;2.45;;;;;;;16.38;63.64;99500.47;5061125;28;20057;-86
2023/06/07 01:46:46;;;;;;;7.50;2.47;;;;;;;16.25;64.35;99504.84;5060747;28;20075;-86
2023/06/07 01:49:12;;;;;;;4.32;2.05;;;;;;;16.28;64.32;99501.50;5059902;28;20032;-86
2023/06/07 01:51:37;;;;;;;4.95;2.20;;;;;;;16.37;63.83;99504.28;5060806;28;20028;-86
2023/06/07 01:54:03;;;;;;;4.88;2.60;;;;;;;16.37;63.84;99498.84;5063498;28;20035;-86
2023/06/07 01:56:35;;;;;;;3.70;2.15;;;;;;;16.32;64.16;99504.41;5065307;28;20028;-85
2023/06/07 01:59:07;;;;;;;8.02;2.30;;;;;;;16.35;63.91;99504.63;5098866;28;20032;-85
2023/06/07 02:01:42;;;;;;;4.88;2.50;;;;;;;16.27;65.00;99507.22;5097526;28;20032;-86
2023/06/07 02:04:09;;;;;;;5.07;2.05;;;;;;;16.26;64.44;99503.72;5082640;28;20024;-86
2023/06/07 02:06:34;;;;;;;10.13;2.42;;;;;;;16.31;64.25;99510.94;5085027;28;20051;-86
2023/06/07 02:09:07;;;;;;;4.10;2.15;;;;;;;16.23;64.94;99512.47;5102037;28;20028;-86
2023/06/07 02:11:32;;;;;;;3.63;2.63;;;;;;;16.33;63.97;99506.00;5084662;28;20024;-86
2023/06/07 02:13:58;;;;;;;4.07;2.40;;;;;;;16.22;64.87;99504.63;5094075;28;20109;-86
2023/06/07 02:16:34;;;;;;;4.63;2.53;;;;;;;16.24;64.84;99503.22;5097379;28;20477;-86
2023/06/07 02:19:00;;;;;;;6.50;2.60;;;;;;;16.11;65.11;99496.69;5095589;28;20039;-86
2023/06/07 02:21:25;;;;;;;3.47;2.42;;;;;;;16.19;64.99;99514.19;5098571;28;20404;-87
2023/06/07 02:23:51;;;;;;;6.18;2.70;;;;;;;16.11;64.73;99501.31;5111374;28;20047;-86
2023/06/07 02:26:16;;;;;;;7.97;2.50;;;;;;;15.99;65.50;99501.81;5084182;28;20028;-87
2023/06/07 02:28:42;;;;;;;5.75;2.20;;;;;;;15.91;65.99;99494.34;5084873;28;20020;-87
2023/06/07 02:31:07;;;;;;;5.30;2.47;;;;;;;15.91;65.97;99497.88;5084873;28;20032;-87
2023/06/07 02:33:33;;;;;;;6.43;2.40;;;;;;;15.85;65.99;99503.69;5084330;28;20034;-87
2023/06/07 02:35:58;;;;;;;6.97;2.92;;;;;;;15.76;66.78;99498.16;5101398;28;20031;-87
2023/06/07 02:38:24;;;;;;;3.90;2.53;;;;;;;15.76;66.73;99509.81;5084229;28;20499;-86
2023/06/07 02:40:49;;;;;;;3.95;2.40;;;;;;;15.72;66.93;99511.53;5077663;28;20038;-86
2023/06/07 02:43:15;;;;;;;4.30;2.30;;;;;;;15.62;66.60;99508.97;5101165;28;20031;-87
2023/06/07 02:45:40;;;;;;;3.55;2.30;;;;;;;15.63;66.59;99516.00;5082943;28;20036;-87
2023/06/07 02:48:07;;;;;;;3.35;2.28;;;;;;;15.54;66.70;99505.03;5101006;28;20114;-87
2023/06/07 02:50:32;;;;;;;5.93;2.25;;;;;;;15.59;67.03;99514.19;5100212;28;20025;-87
2023/06/07 02:52:59;;;;;;;3.58;2.42;;;;;;;15.49;66.90;99513.25;5084036;28;20019;-87
2023/06/07 02:55:25;;;;;;;7.90;2.58;;;;;;;15.42;67.05;99510.13;5084084;28;20485;-87
2023/06/07 02:57:50;;;;;;;3.28;2.42;;;;;;;15.34;66.50;99500.75;5084290;28;20030;-87
2023/06/07 03:00:16;;;;;;;6.00;2.75;;;;;;;15.40;66.33;99514.22;5081061;28;20028;-86
2023/06/07 03:02:42;;;;;;;4.65;2.22;;;;;;;15.36;66.83;99512.13;5080776;28;20028;-87
2023/06/07 03:05:07;;;;;;;5.35;2.50;;;;;;;15.44;67.57;99521.50;5062558;28;20028;-87
2023/06/07 03:07:35;;;;;;;4.75;2.50;;;;;;;15.41;67.36;99507.72;5066897;28;20076;-87
2023/06/07 03:10:02;;;;;;;4.63;2.67;;;;;;;15.43;67.41;99517.16;5100637;28;20035;-87
2023/06/07 03:12:28;;;;;;;3.55;2.03;;;;;;;15.45;66.67;99508.72;5098594;28;20028;-87
2023/06/07 03:14:53;;;;;;;3.65;2.65;;;;;;;15.39;67.24;99516.13;5063740;28;20086;-87
2023/06/07 03:17:18;;;;;;;8.30;3.63;;;;;;;15.45;67.59;99528.53;5063552;28;20379;-87
2023/06/07 03:19:44;;;;;;;10.25;2.70;;;;;;;15.38;67.97;99514.53;5064028;28;20028;-87
2023/06/07 03:22:09;;;;;;;6.25;2.75;;;;;;;15.46;67.66;99519.28;5081125;28;20024;-87
2023/06/07 03:24:36;;;;;;;7.00;2.50;;;;;;;15.38;67.57;99503.69;5096889;28;20070;-86
2023/06/07 03:27:03;;;;;;;5.13;2.90;;;;;;;15.38;68.11;99500.97;5065870;28;20558;-86
2023/06/07 03:29:30;;;;;;;8.00;3.33;;;;;;;15.31;67.95;99509.47;5103207;28;20027;-88
2023/06/07 03:31:55;;;;;;;5.05;2.83;;;;;;;15.30;67.32;99507.88;5069633;28;20107;-88
2023/06/07 03:34:21;;;;;;;15.23;2.95;;;;;;;15.39;67.65;99508.00;5085054;28;20028;-88
2023/06/07 03:36:47;;;;;;;10.27;3.55;;;;;;;15.49;67.00;99510.53;5118846;28;20046;-89
2023/06/07 03:39:13;;;;;;;9.02;3.00;;;;;;;15.55;67.07;99508.56;5085523;28;20481;-89
2023/06/07 03:41:38;;;;;;;8.55;4.10;;;;;;;15.60;66.86;99513.06;5088213;28;20020;-88
2023/06/07 03:44:04;;;;;;;7.30;3.17;;;;;;;15.60;67.21;99503.03;5101793;28;20019;-88
2023/06/07 03:46:29;;;;;;;6.97;3.10;;;;;;;15.71;66.69;99512.63;5101384;28;20023;-88
2023/06/07 03:48:55;;;;;;;12.30;3.70;;;;;;;15.65;67.23;99500.22;5100642;28;20504;-88
2023/06/07 03:51:20;;;;;;;9.27;3.38;;;;;;;15.65;67.18;99504.88;5083214;28;20023;-88
2023/06/07 03:53:46;;;;;;;7.50;3.50;;;;;;;15.65;66.74;99500.22;5084128;28;20012;-89
2023/06/07 03:56:11;;;;;;;6.95;3.50;;;;;;;15.69;67.16;99511.31;5078634;28;20077;-89
2023/06/07 03:58:37;;;;;;;14.88;7.57;;;;;;;15.78;66.66;99511.44;5075201;28;20028;-88
2023/06/07 04:01:03;;;;;;;7.40;4.35;;;;;;;15.94;66.82;99524.44;5083381;28;20023;-88
2023/06/07 04:03:30;;;;;;;7.28;3.40;;;;;;;15.95;66.07;99523.31;5080205;28;20417;-88
2023/06/07 04:05:55;;;;;;;7.32;3.20;;;;;;;15.95;66.44;99512.44;5080226;28;20038;-88
2023/06/07 04:08:21;;;;;;;10.52;3.42;;;;;;;16.09;65.66;99522.53;5082416;28;20012;-88
2023/06/07 04:10:46;;;;;;;11.20;4.40;;;;;;;16.11;65.83;99515.69;5073407;28;20020;-89
2023/06/07 04:13:12;;;;;;;7.82;4.03;;;;;;;16.19;65.24;99524.25;5098388;28;20027;-87
2023/06/07 04:15:37;;;;;;;9.38;3.65;;;;;;;16.25;65.10;99532.00;5076265;28;20028;-88
2023/06/07 04:18:03;;;;;;;11.10;5.50;;;;;;;16.21;64.93;99514.69;5073311;28;20024;-88
2023/06/07 04:20:28;;;;;;;7.82;3.45;;;;;;;16.32;64.63;99528.88;5088358;28;20031;-86
2023/06/07 04:22:54;;;;;;;8.15;4.30;;;;;;;16.37;64.72;99528.75;5081615;28;20023;-88
2023/06/07 04:25:21;;;;;;;6.00;3.17;;;;;;;16.51;63.14;99526.03;5094948;28;20034;-88
2023/06/07 04:27:48;;;;;;;6.82;3.00;;;;;;;16.62;63.03;99511.13;5107862;28;20027;-88
2023/06/07 04:30:15;;;;;;;7.50;3.58;;;;;;;16.81;62.78;99519.16;5074821;28;20019;-88
2023/06/07 04:32:43;;;;;;;11.02;3.50;;;;;;;16.96;61.72;99516.09;5068456;28;20074;-87
2023/06/07 04:35:09;;;;;;;6.45;3.85;;;;;;;17.00;61.55;99510.06;5063913;28;20030;-87
2023/06/07 04:37:34;;;;;;;8.18;3.47;;;;;;;17.13;61.54;99518.16;5078969;28;20063;-87
2023/06/07 04:40:00;;;;;;;6.50;3.35;;;;;;;17.14;61.57;99508.88;5082635;28;20447;-93
2023/06/07 04:42:28;;;;;;;5.95;3.78;;;;;;;17.20;61.37;99509.53;5082873;28;20027;-92
2023/06/07 04:44:54;;;;;;;8.77;3.67;;;;;;;17.32;61.84;99517.97;5080460;28;20025;-93
2023/06/07 04:47:20;;;;;;;20.63;4.97;;;;;;;17.40;60.80;99505.53;5083944;28;20036;-95
2023/06/07 04:49:46;;;;;;;8.40;3.72;;;;;;;17.56;59.54;99512.19;5102808;28;20015;-93
2023/06/07 04:52:12;;;;;;;6.25;3.35;;;;;;;17.66;59.42;99515.75;5102892;28;20030;-93
2023/06/07 04:54:39;;;;;;;10.05;3.67;;;;;;;17.68;59.90;99508.91;5085926;28;20035;-92
2023/06/07 04:57:08;;;;;;;291.70;24.30;;;;;;;17.65;57.25;99501.34;5085152;28;20136;-92
2023/06/07 04:59:41;;;;;;;7.38;2.53;;;;;;;17.91;54.82;99515.13;5085198;28;20028;-92
2023/06/07 05:02:07;;;;;;;6.55;2.42;;;;;;;17.94;53.26;99509.03;5086181;28;20047;-92
2023/06/07 05:04:33;;;;;;;3.20;2.35;;;;;;;18.08;53.31;99519.84;5084154;28;20043;-93
2023/06/07 05:06:58;;;;;;;6.07;2.50;;;;;;;18.16;54.14;99508.19;5085774;28;20023;-94
2023/06/07 05:09:27;;;;;;;9.57;4.28;;;;;;;18.34;54.44;99511.78;5106021;28;20019;-93
2023/06/07 05:11:53;;;;;;;3.97;2.50;;;;;;;18.57;52.61;99517.09;5083431;28;20043;-92
2023/06/07 05:14:18;;;;;;;7.18;3.50;;;;;;;18.68;52.20;99506.69;5100172;28;20039;-93
2023/06/07 05:19:53;;;;;;;6.85;3.22;;;;;;;18.65;52.61;99510.03;5117086;28;20054;-92
2023/06/07 05:22:18;;;;;;;8.82;3.55;;;;;;;18.83;52.62;99517.16;5083517;28;20027;-94
2023/06/07 05:24:44;;;;;;;10.82;2.97;;;;;;;18.78;51.54;99509.13;5069273;28;20152;-94
2023/06/07 05:27:10;;;;;;;4.00;2.33;;;;;;;18.93;50.44;99508.66;5103654;28;20023;-92
2023/06/07 05:29:36;;;;;;;3.92;2.22;;;;;;;19.01;49.91;99508.97;5096448;28;20023;-90
2023/06/07 05:32:11;;;;;;;3.67;2.47;;;;;;;19.17;50.59;99515.53;5080860;28;20481;-92
2023/06/07 05:34:38;;;;;;;9.45;4.53;;;;;;;19.28;50.38;99510.56;5075442;28;20029;-92
2023/06/07 05:37:05;;;;;;;7.68;2.90;;;;;;;19.38;50.66;99529.34;5049012;28;20041;-93
2023/06/07 05:39:33;;;;;;;7.85;3.03;;;;;;;19.29;49.65;99493.06;5046606;28;20044;-93
2023/06/07 05:41:59;;;;;;;3.45;2.40;;;;;;;19.55;49.59;99496.53;5062461;28;20039;-94
2023/06/07 05:44:25;;;;;;;3.30;2.45;;;;;;;19.74;49.36;99498.94;5044468;28;20513;-93
2023/06/07 05:50:40;;;;;;;7.28;2.30;;;;;;;20.02;48.12;99509.41;5100494;28;20055;-96
2023/06/07 05:53:05;;;;;;;4.55;2.38;;;;;;;20.03;48.25;99527.44;5080454;28;20036;-89
2023/06/07 05:55:34;;;;;;;21.60;10.88;;;;;;;19.92;48.52;99510.59;5049196;28;20153;-94
2023/06/07 05:58:05;;;;;;;6.07;3.40;;;;;;;20.26;47.64;99521.72;5065735;28;20086;-93
2023/06/07 06:00:31;;;;;;;6.50;2.70;;;;;;;20.23;48.23;99517.69;5063935;28;20032;-91
2023/06/07 06:03:04;;;;;;;7.22;3.13;;;;;;;20.44;47.67;99536.91;5063629;28;20562;-91
2023/06/07 06:05:38;;;;;;;4.97;2.35;;;;;;;20.43;46.03;99515.34;5065358;28;20134;-85
2023/06/07 06:08:06;;;;;;;4.43;2.08;;;;;;;20.56;45.61;99522.50;5094300;28;20035;-94
2023/06/07 06:10:32;;;;;;;3.20;2.17;;;;;;;20.69;45.49;99535.16;5060980;28;20031;-89
2023/06/07 06:13:00;;;;;;;4.03;1.88;;;;;;;20.77;46.86;99530.75;5079665;28;20119;-92
2023/06/07 06:15:41;;;;;;;2.85;2.08;;;;;;;20.94;45.48;99525.16;5102583;28;20020;-96
2023/06/07 06:18:06;;;;;;;3.67;2.30;;;;;;;21.01;45.61;99532.03;5090188;28;20113;-89
2023/06/07 06:20:34;;;;;;;6.05;2.40;;;;;;;21.13;45.36;99543.84;5083263;28;20031;-89
2023/06/07 06:23:00;;;;;;;4.03;2.10;;;;;;;21.10;44.98;99541.78;5102919;28;20115;-88
2023/06/07 06:25:28;;;;;;;13.50;4.57;;;;;;;21.08;45.17;99537.78;5119237;28;20024;-88
2023/06/07 06:27:54;;;;;;;5.20;2.60;;;;;;;21.05;45.76;99547.47;5103540;28;20020;-90
2023/06/07 06:30:20;;;;;;;4.13;2.10;;;;;;;21.22;44.50;99534.75;5081793;28;20028;-88
2023/06/07 06:32:46;;;;;;;4.13;2.20;;;;;;;21.31;44.73;99554.66;5089221;28;20028;-90
2023/06/07 06:35:12;;;;;;;3.60;2.03;;;;;;;21.34;45.05;99543.81;5081676;28;20485;-90
2023/06/07 06:37:46;;;;;;;3.63;2.25;;;;;;;21.28;44.90;99538.91;5082172;28;20020;-88
2023/06/07 06:40:12;;;;;;;5.20;2.25;;;;;;;21.43;44.89;99537.50;5085009;28;20015;-91
2023/06/07 06:42:46;;;;;;;4.80;3.25;;;;;;;21.39;45.20;99534.59;5083525;28;20024;-91
2023/06/07 06:45:14;;;;;;;7.40;2.80;;;;;;;21.35;45.04;99533.66;5105553;28;20442;-90
2023/06/07 06:47:45;;;;;;;4.43;2.72;;;;;;;21.72;45.06;99550.25;5117368;28;20039;-89
2023/06/07 06:50:11;;;;;;;4.40;1.80;;;;;;;21.70;44.76;99533.34;5105472;28;20034;-90
2023/06/07 06:53:03;;;;;;;4.80;2.08;;;;;;;21.62;44.61;99534.25;5119461;28;20046;-90
2023/06/07 06:55:31;;;;;;;7.18;2.10;;;;;;;21.68;44.57;99535.63;5073067;28;20066;-88
2023/06/07 06:57:57;;;;;;;5.38;1.95;;;;;;;21.76;43.46;99551.19;5042869;28;20025;-88
2023/06/07 07:00:26;;;;;;;4.38;2.38;;;;;;;21.86;44.01;99534.31;5088591;28;20098;-88
2023/06/07 07:03:01;;;;;;;34.15;20.27;;;;;;;21.79;44.85;99529.38;5038053;28;20054;-88
2023/06/07 07:05:27;;;;;;;3.50;2.03;;;;;;;21.73;44.58;99519.78;5055368;28;20032;-87
2023/06/07 07:07:53;;;;;;;3.15;2.00;;;;;;;21.84;43.95;99533.84;5027368;28;20090;-88
2023/06/07 07:10:18;;;;;;;3.13;1.90;;;;;;;21.92;43.67;99512.97;5036540;28;20078;-87
2023/06/07 07:12:44;;;;;;;3.97;2.13;;;;;;;22.14;44.43;99542.69;5050858;28;20051;-88
2023/06/07 07:15:10;;;;;;;3.70;1.92;;;;;;;21.98;44.34;99537.06;5063036;28;20043;-86
2023/06/07 07:17:45;;;;;;;3.75;2.05;;;;;;;21.73;44.74;99533.47;5062893;28;20060;-88
2023/06/07 07:20:11;;;;;;;3.38;2.13;;;;;;;21.79;44.93;99520.38;5061909;28;20051;-88
2023/06/07 07:22:37;;;;;;;4.25;2.13;;;;;;;22.07;44.61;99534.22;5045615;28;20041;-96
2023/06/07 07:25:04;;;;;;;5.80;1.90;;;;;;;22.24;44.23;99548.88;5036130;28;20490;-95
2023/06/07 07:27:37;;;;;;;3.80;2.30;;;;;;;22.22;44.79;99535.47;5086877;28;20047;-94
2023/06/07 07:30:04;;;;;;;13.55;2.78;;;;;;;22.16;43.96;99529.44;5055932;28;20036;-93
2023/06/07 07:32:31;;;;;;;5.13;2.10;;;;;;;22.39;42.84;99545.44;5056224;28;20070;-90
2023/06/07 07:34:59;;;;;;;3.63;2.30;;;;;;;22.53;43.83;99559.63;5055398;28;20024;-92
2023/06/07 07:37:28;;;;;;;8.77;3.08;;;;;;;22.66;43.33;99549.44;5075102;28;20083;-94
2023/06/07 07:39:54;;;;;;;4.47;2.40;;;;;;;22.62;41.83;99551.28;5072990;28;20187;-91
2023/06/07 07:42:43;;;;;;;3.60;2.08;;;;;;;22.55;41.20;99523.59;5058466;28;20051;-92
2023/06/07 07:45:23;;;;;;;5.88;2.92;;;;;;;22.88;41.03;99545.38;5078595;28;20115;-90
2023/06/07 07:47:49;;;;;;;5.28;2.75;;;;;;;22.89;41.81;99530.53;5068998;28;20413;-89
2023/06/07 07:50:15;;;;;;;6.32;2.13;;;;;;;23.07;41.04;99546.75;5046634;28;20036;-90
2023/06/07 07:53:07;;;;;;;4.93;1.90;;;;;;;23.01;40.92;99540.69;5037856;28;20082;-87
2023/06/07 07:55:52;;;;;;;;;;;;;;;23.24;41.56;99560.19;5058228;28;20116;-89
2023/06/07 07:58:19;;;;;;;6.20;2.40;;;;;;;23.29;41.68;99540.72;5102945;28;19943;-88
2023/06/07 08:00:44;;;;;;;4.15;3.00;;;;;;;23.44;41.99;99552.91;5076298;28;20488;-88
2023/06/07 08:03:15;;;;;;;5.47;2.80;;;;;;;23.47;41.28;99530.22;5104896;28;20047;-96
2023/06/07 08:05:44;;;;;;;;;;;;;;;23.74;40.85;99552.50;5123603;28;20023;-86
2023/06/07 08:08:09;;;;;;;8.70;4.70;;;;;;;23.70;39.85;99551.63;5100908;28;19919;-89
2023/06/07 08:10:37;;;;;;;4.75;2.60;;;;;;;23.69;40.65;99552.78;5103040;28;20076;-86
2023/06/07 08:13:02;;;;;;;12.55;8.48;;;;;;;23.75;39.84;99540.38;5101288;28;20038;-89
2023/06/07 08:16:02;;;;;;;10.95;5.25;;;;;;;23.88;38.99;99550.16;5093146;28;20019;-88
2023/06/07 08:18:28;;;;;;;5.18;2.30;;;;;;;23.87;39.08;99531.28;5095740;28;20023;-87
2023/06/07 08:20:53;;;;;;;4.20;2.28;;;;;;;23.96;39.29;99535.44;5095421;28;20039;-87
2023/06/07 08:23:19;;;;;;;7.53;2.30;;;;;;;23.84;38.56;99534.72;5078458;28;20020;-87
2023/06/07 08:25:58;;;;;;;3.22;2.17;;;;;;;24.03;38.72;99542.28;5085540;28;20076;-88
2023/06/07 08:28:25;;;;;;;5.25;2.35;;;;;;;23.97;39.03;99522.50;5086723;28;20034;-87
2023/06/07 08:30:51;;;;;;;3.45;1.90;;;;;;;24.02;38.90;99533.25;5091036;28;20027;-93
2023/06/07 08:33:19;;;;;;;2.97;2.10;;;;;;;23.93;38.92;99525.16;5095049;28;20020;-92
2023/06/07 08:35:46;;;;;;;6.03;2.55;;;;;;;23.94;39.89;99528.72;5093057;28;20459;-88
2023/06/07 08:38:12;;;;;;;4.38;2.00;;;;;;;24.07;38.71;99521.16;5095833;28;20019;-89
2023/06/07 08:40:41;;;;;;;5.03;2.20;;;;;;;24.08;39.49;99514.53;5085540;28;20173;-88
2023/06/07 08:43:07;;;;;;;7.13;2.38;;;;;;;24.29;39.19;99533.50;5089049;28;20055;-88
2023/06/07 08:46:05;;;;;;;4.90;2.47;;;;;;;24.39;39.57;99547.50;5102372;28;20063;-91
2023/06/07 08:48:35;;;;;;;4.03;2.72;;;;;;;24.43;38.21;99525.56;5098462;28;20036;-92
2023/06/07 08:51:21;;;;;;;4.40;2.30;;;;;;;24.59;36.92;99520.03;5086206;28;20043;-92
2023/06/07 08:53:51;;;;;;;4.10;2.38;;;;;;;24.58;37.26;99526.72;5099317;28;20035;-93
2023/06/07 08:56:23;;;;;;;3.28;1.80;;;;;;;24.65;37.38;99512.31;5075856;28;20024;-95
2023/06/07 08:58:48;;;;;;;8.10;2.72;;;;;;;24.72;37.55;99518.00;5078325;28;20533;-92
2023/06/07 09:01:14;;;;;;;5.60;2.42;;;;;;;24.64;37.58;99517.03;5081998;28;20067;-93
2023/06/07 09:03:40;;;;;;;3.40;1.90;;;;;;;24.78;37.45;99524.81;5082428;28;20055;-95
2023/06/07 09:09:48;;;;;;;4.90;1.90;;;;;;;24.75;37.77;99520.00;5078855;28;20120;-94
2023/06/07 09:12:14;;;;;;;5.97;2.40;;;;;;;24.72;38.03;99513.28;5034653;28;20029;-95
2023/06/07 09:14:50;;;;;;;5.20;2.00;;;;;;;24.98;38.07;99529.16;5050597;28;20029;-96
2023/06/07 09:17:22;;;;;;;4.03;2.35;;;;;;;25.06;37.43;99524.59;5069166;28;20102;-96
2023/06/07 09:19:50;;;;;;;8.25;2.92;;;;;;;25.27;36.96;99524.25;5030737;28;20509;-93
2023/06/07 09:22:17;;;;;;;8.43;3.30;;;;;;;25.35;37.26;99512.22;5028882;28;20437;-96
2023/06/07 09:24:43;;;;;;;6.50;2.63;;;;;;;25.50;37.57;99521.53;5064033;28;20044;-93
2023/06/07 09:27:09;;;;;;;5.72;3.15;;;;;;;25.39;36.84;99512.28;5031147;28;20051;-92
2023/06/07 09:29:46;;;;;;;3.60;2.38;;;;;;;25.24;36.60;99497.44;5047491;28;20036;-95
2023/06/07 09:32:21;;;;;;;3.42;2.38;;;;;;;25.28;36.06;99500.28;5032072;28;20035;-93
2023/06/07 09:35:18;;;;;;;6.25;2.10;;;;;;;25.00;37.05;99504.00;5068241;28;20029;-89
2023/06/07 09:37:54;;;;;;;4.07;2.30;;;;;;;25.26;36.97;99506.16;5078632;28;20027;-90
2023/06/07 09:40:53;;;;;;;3.38;2.25;;;;;;;25.41;36.38;99526.50;5093405;28;20089;-88
2023/06/07 09:43:21;;;;;;;4.03;1.95;;;;;;;25.11;36.83;99507.78;5117557;28;20032;-88
2023/06/07 09:45:58;;;;;;;5.00;1.85;;;;;;;25.14;36.61;99515.31;5074453;28;20401;-88
2023/06/07 09:48:26;;;;;;;3.38;2.00;;;;;;;25.06;37.05;99504.53;5075026;28;20044;-87
2023/06/07 09:51:01;;;;;;;4.28;2.80;;;;;;;25.16;37.53;99515.75;5072749;28;20046;-87
2023/06/07 09:53:29;;;;;;;3.20;2.15;;;;;;;25.10;36.37;99503.44;5071468;28;20043;-89
2023/06/07 09:55:54;;;;;;;5.97;3.30;;;;;;;24.98;36.96;99500.81;5075458;28;20051;-90
2023/06/07 09:58:24;;;;;;;5.35;2.50;;;;;;;25.19;36.08;99515.03;5076109;28;20106;-89
2023/06/07 10:00:52;;;;;;;7.32;2.10;;;;;;;25.27;36.04;99523.47;5072968;28;20028;-88
2023/06/07 10:03:53;;;;;;;2.97;2.10;;;;;;;25.17;35.42;99498.06;5073445;28;20074;-88
2023/06/07 10:06:21;;;;;;;4.32;2.15;;;;;;;25.27;35.57;99504.19;5073263;28;20032;-87
2023/06/07 10:08:50;;;;;;;3.45;1.83;;;;;;;25.36;34.89;99508.31;5075297;28;20091;-90
2023/06/07 10:11:15;;;;;;;3.45;1.90;;;;;;;25.31;35.72;99505.03;5043400;28;20024;-90
2023/06/07 10:13:41;;;;;;;3.00;2.10;;;;;;;25.31;34.52;99508.59;5060544;28;20030;-89
2023/06/07 10:16:12;;;;;;;5.95;2.35;;;;;;;25.37;34.84;99512.66;5007857;28;20083;-88
2023/06/07 10:19:01;;;;;;;;;;;;;;;25.43;34.45;99515.91;4987296;28;20029;-88
2023/06/07 10:25:12;;;;;;;8.13;2.70;;;;;;;25.31;35.80;99481.03;5014247;28;20071;-88
2023/06/07 10:27:51;;;;;;;4.85;2.25;;;;;;;25.40;35.81;99498.16;5033723;28;20080;-88
2023/06/07 10:30:17;;;;;;;2.75;1.92;;;;;;;25.58;35.14;99512.25;5021871;28;20588;-88
2023/06/07 10:32:44;;;;;;;4.10;2.05;;;;;;;25.50;35.14;99480.19;4988516;28;20068;-90
2023/06/07 10:35:11;;;;;;;6.13;2.40;;;;;;;25.81;34.56;99505.94;4990733;28;20034;-89
2023/06/07 10:37:36;;;;;;;6.80;2.40;;;;;;;25.87;34.65;99504.47;5021140;28;20113;-88
2023/06/07 10:47:29;;;;;;;4.30;2.00;;;;;;;25.94;34.08;99509.34;5083847;28;20035;-90
2023/06/07 10:50:02;;;;;;;3.30;2.10;;;;;;;25.86;33.85;99482.75;5102069;28;20035;-88
2023/06/07 10:53:19;;;;;;;5.63;2.33;;;;;;;25.70;34.11;99471.88;5085127;28;20457;-87
2023/06/07 10:55:44;;;;;;;4.68;2.30;;;;;;;26.09;34.23;99493.84;5102726;28;20036;-88
2023/06/07 10:58:26;;;;;;;3.80;1.80;;;;;;;25.94;34.62;99479.81;5092775;28;20118;-89
2023/06/07 11:00:52;;;;;;;3.95;2.22;;;;;;;25.86;35.36;99480.00;5086415;28;20447;-87
2023/06/07 11:03:23;;;;;;;4.40;2.00;;;;;;;26.05;34.80;99481.94;5082609;28;20134;-88
2023/06/07 11:05:52;;;;;;;7.00;2.95;;;;;;;25.99;33.98;99481.44;5116985;28;20059;-88
2023/06/07 11:08:26;;;;;;;7.72;2.15;;;;;;;26.03;34.25;99463.00;5120234;28;20025;-88
2023/06/07 11:14:07;;;;;;;4.15;2.10;;;;;;;26.50;33.90;99478.28;5105879;28;20036;-87
2023/06/07 11:16:33;;;;;;;5.57;2.00;;;;;;;26.62;32.35;99477.25;5104869;28;20066;-87
2023/06/07 11:19:05;;;;;;;3.45;2.40;;;;;;;26.35;33.21;99465.44;5114644;28;20083;-87
2023/06/07 11:21:57;;;;;;;5.38;1.80;;;;;;;26.57;32.81;99474.84;5108446;28;20028;-86
2023/06/07 11:24:23;;;;;;;2.90;2.03;;;;;;;26.68;32.68;99466.69;5110569;28;20023;-88
2023/06/07 11:27:36;;;;;;;4.80;2.35;;;;;;;26.68;32.56;99441.84;5093821;28;20084;-87
2023/06/07 11:30:02;;;;;;;4.25;1.90;;;;;;;26.81;32.94;99468.03;5084092;28;20036;-89
2023/06/07 11:32:37;;;;;;;2.88;2.03;;;;;;;26.79;32.29;99473.97;5066242;28;20024;-87
2023/06/07 11:39:19;;;;;;;5.47;2.00;;;;;;;26.51;32.68;99471.56;5081848;28;20578;-88
2023/06/07 11:41:47;;;;;;;5.15;3.40;;;;;;;26.39;33.12;99439.44;5080915;28;20028;-90
2023/06/07 11:44:13;;;;;;;3.80;2.13;;;;;;;26.61;33.42;99459.91;5048685;28;20020;-90
2023/06/07 11:46:38;;;;;;;5.28;1.98;;;;;;;26.46;33.40;99449.81;5050205;28;20702;-91
2023/06/07 11:49:25;;;;;;;3.28;1.92;;;;;;;26.71;33.00;99464.00;5063357;28;20126;-90
2023/06/07 11:51:57;;;;;;;5.07;2.20;;;;;;;26.61;33.54;99459.91;5083234;28;20028;-90
2023/06/07 11:54:24;;;;;;;;;;;;;;;26.74;32.47;99460.47;5072147;28;20067;-90
2023/06/07 11:56:53;;;;;;;3.35;2.05;;;;;;;26.44;32.78;99430.06;5084773;28;19998;-87
2023/06/07 11:59:22;;;;;;;2.50;1.70;;;;;;;26.50;32.96;99439.63;5081960;28;20021;-86
2023/06/07 12:01:53;;;;;;;3.58;1.92;;;;;;;26.55;32.49;99435.72;5082234;28;20027;-86
2023/06/07 12:04:25;;;;;;;3.50;2.13;;;;;;;26.62;33.33;99446.88;5086788;28;20051;-87
2023/06/07 12:06:52;;;;;;;6.40;2.47;;;;;;;26.57;33.42;99423.16;5073776;28;20278;-87
2023/06/07 12:09:18;;;;;;;4.68;1.90;;;;;;;26.59;32.20;99420.81;5105961;28;20036;-88
2023/06/07 12:12:18;;;;;;;6.20;1.80;;;;;;;26.71;32.06;99419.78;5096507;28;20026;-87